createdAt,value
2022-08-26T00:01:56.084Z,22.33
2022-08-26T00:04:25.168Z,22.32
2022-08-26T00:06:53.737Z,22.31
2022-08-26T00:09:21.371Z,22.28
2022-08-26T00:11:51.105Z,22.24
2022-08-26T00:14:18.726Z,22.21
2022-08-26T00:16:47.545Z,22.22
2022-08-26T00:19:16.520Z,22.24
2022-08-26T00:21:44.430Z,22.21
2022-08-26T00:24:13.219Z,22.24
2022-08-26T00:26:41.683Z,22.27
2022-08-26T00:29:12.216Z,22.28
2022-08-26T00:31:40.173Z,22.30
2022-08-26T00:34:09.476Z,22.31
2022-08-26T00:36:37.330Z,22.29
2022-08-26T00:39:08.078Z,22.24
2022-08-26T00:41:36.232Z,22.19
2022-08-26T00:44:05.557Z,22.15
2022-08-26T00:46:37.755Z,22.10
2022-08-26T00:49:12.134Z,22.08
2022-08-26T00:51:45.150Z,22.03
2022-08-26T00:54:13.727Z,22.01
2022-08-26T00:56:47.092Z,22.00
2022-08-26T00:59:18.115Z,22.01
2022-08-26T01:01:47.561Z,22.01
2022-08-26T01:04:18.383Z,22.00
2022-08-26T01:06:46.875Z,22.01
2022-08-26T01:09:15.109Z,22.01
2022-08-26T01:11:43.029Z,21.98
2022-08-26T01:14:11.774Z,21.96
2022-08-26T01:16:39.440Z,21.92
2022-08-26T01:19:19.983Z,21.89
2022-08-26T01:21:51.247Z,21.87
2022-08-26T01:24:20.479Z,21.84
2022-08-26T01:26:49.476Z,21.83
2022-08-26T01:29:20.167Z,21.81
2022-08-26T01:31:50.840Z,21.77
2022-08-26T01:34:23.117Z,21.75
2022-08-26T01:36:55.525Z,21.72
2022-08-26T01:39:24.812Z,21.69
2022-08-26T01:41:56.844Z,21.67
2022-08-26T01:44:27.800Z,21.64
2022-08-26T01:46:57.707Z,21.61
2022-08-26T01:49:26.480Z,21.61
2022-08-26T01:51:56.370Z,21.59
2022-08-26T01:54:27.348Z,21.55
2022-08-26T01:56:55.899Z,21.52
2022-08-26T01:59:25.322Z,21.47
2022-08-26T02:01:54.092Z,21.42
2022-08-26T02:04:26.595Z,21.37
2022-08-26T02:06:56.475Z,21.34
2022-08-26T02:09:26.189Z,21.31
2022-08-26T02:11:56.121Z,21.29
2022-08-26T02:14:27.060Z,21.26
2022-08-26T02:16:56.164Z,21.24
2022-08-26T02:19:28.581Z,21.19
2022-08-26T02:21:58.831Z,21.17
2022-08-26T02:24:29.217Z,21.14
2022-08-26T02:26:59.317Z,21.13
2022-08-26T02:29:33.547Z,21.09
2022-08-26T02:32:01.125Z,21.06
2022-08-26T02:34:31.960Z,21.04
2022-08-26T02:37:01.210Z,21.03
2022-08-26T02:39:29.427Z,20.99
2022-08-26T02:41:59.210Z,20.97
2022-08-26T02:44:27.272Z,20.95
2022-08-26T02:46:55.964Z,20.93
2022-08-26T02:49:24.603Z,20.93
2022-08-26T02:51:53.244Z,20.91
2022-08-26T02:54:22.619Z,20.88
2022-08-26T02:56:51.296Z,20.88
2022-08-26T02:59:20.168Z,20.87
2022-08-26T03:01:52.139Z,20.84
2022-08-26T03:04:23.839Z,20.81
2022-08-26T03:06:53.609Z,20.78
2022-08-26T03:09:24.915Z,20.76
2022-08-26T03:11:52.465Z,20.72
2022-08-26T03:14:23.681Z,20.68
2022-08-26T03:16:52.335Z,20.65
2022-08-26T03:19:19.911Z,20.65
2022-08-26T03:21:47.617Z,20.64
2022-08-26T03:24:15.864Z,20.64
2022-08-26T03:26:52.069Z,20.69
2022-08-26T03:29:39.922Z,20.73
2022-08-26T03:32:07.691Z,20.77
2022-08-26T03:34:35.443Z,20.75
2022-08-26T03:37:03.021Z,20.67
2022-08-26T03:39:31.558Z,20.62
2022-08-26T03:41:59.450Z,20.58
2022-08-26T03:44:28.895Z,20.55
2022-08-26T03:46:56.610Z,20.49
2022-08-26T03:49:24.163Z,20.46
2022-08-26T03:51:51.678Z,20.43
2022-08-26T03:54:19.300Z,20.41
2022-08-26T03:56:47.557Z,20.36
2022-08-26T03:59:15.288Z,20.34
2022-08-26T04:01:44.497Z,20.30
2022-08-26T04:04:15.445Z,20.29
2022-08-26T04:06:44.696Z,20.26
2022-08-26T04:09:15.823Z,20.23
2022-08-26T04:11:45.438Z,20.21
2022-08-26T04:14:20.267Z,20.20
2022-08-26T04:16:50.097Z,20.20
2022-08-26T04:19:20.361Z,20.19
2022-08-26T04:21:50.997Z,20.19
2022-08-26T04:24:18.627Z,20.15
2022-08-26T04:26:46.663Z,20.14
2022-08-26T04:29:18.266Z,20.11
2022-08-26T04:31:46.906Z,20.09
2022-08-26T04:34:17.789Z,20.11
2022-08-26T04:36:45.900Z,20.13
2022-08-26T04:39:16.725Z,20.13
2022-08-26T04:41:46.713Z,20.12
2022-08-26T04:44:14.683Z,20.15
2022-08-26T04:46:43.855Z,20.16
2022-08-26T04:49:12.179Z,20.15
2022-08-26T04:51:41.296Z,20.12
2022-08-26T04:54:11.460Z,20.08
2022-08-26T04:56:41.379Z,20.05
2022-08-26T04:59:17.073Z,20.08
2022-08-26T05:01:47.400Z,20.13
2022-08-26T05:04:18.785Z,20.16
2022-08-26T05:06:48.326Z,20.16
2022-08-26T05:09:16.085Z,20.13
2022-08-26T05:11:43.619Z,20.08
2022-08-26T05:14:11.124Z,20.04
2022-08-26T05:16:40.551Z,20.02
2022-08-26T05:19:08.817Z,20.01
2022-08-26T05:21:36.835Z,20.01
2022-08-26T05:24:07.928Z,20.03
2022-08-26T05:26:35.802Z,20.04
2022-08-26T05:29:03.363Z,20.03
2022-08-26T05:31:33.495Z,20.03
2022-08-26T05:34:03.704Z,20.02
2022-08-26T05:36:34.418Z,20.06
2022-08-26T05:39:03.542Z,20.13
2022-08-26T05:41:36.445Z,20.21
2022-08-26T05:44:06.924Z,20.28
2022-08-26T05:46:35.401Z,20.34
2022-08-26T05:49:03.910Z,20.42
2022-08-26T05:51:32.098Z,20.50
2022-08-26T05:54:00.160Z,20.58
2022-08-26T05:56:28.877Z,20.65
2022-08-26T05:58:58.436Z,20.71
2022-08-26T06:01:27.931Z,20.79
2022-08-26T06:04:01.887Z,20.87
2022-08-26T06:06:31.553Z,20.93
2022-08-26T06:09:00.920Z,20.98
2022-08-26T06:11:30.551Z,21.04
2022-08-26T06:14:03.873Z,21.13
2022-08-26T06:16:34.624Z,21.19
2022-08-26T06:19:03.863Z,21.26
2022-08-26T06:21:41.135Z,21.35
2022-08-26T06:24:29.451Z,21.42
2022-08-26T06:27:01.649Z,21.48
2022-08-26T06:29:33.539Z,21.50
2022-08-26T06:32:02.922Z,21.51
2022-08-26T06:34:31.033Z,21.54
2022-08-26T06:37:02.149Z,21.56
2022-08-26T06:39:30.608Z,21.63
2022-08-26T06:41:58.889Z,21.70
2022-08-26T06:44:26.808Z,21.78
2022-08-26T06:46:56.029Z,21.84
2022-08-26T06:49:27.546Z,21.92
2022-08-26T06:51:56.438Z,21.96
2022-08-26T06:54:24.031Z,22.04
2022-08-26T06:56:51.601Z,22.11
2022-08-26T06:59:19.108Z,22.17
2022-08-26T07:01:47.464Z,22.23
2022-08-26T07:04:20.267Z,22.29
2022-08-26T07:06:52.714Z,22.35
2022-08-26T07:09:22.280Z,22.43
2022-08-26T07:11:51.205Z,22.53
2022-08-26T07:14:19.334Z,22.59
2022-08-26T07:16:49.152Z,22.67
2022-08-26T07:19:28.482Z,22.79
2022-08-26T07:21:59.262Z,22.98
2022-08-26T07:24:29.104Z,23.13
2022-08-26T07:27:00.476Z,23.28
2022-08-26T07:29:28.678Z,23.43
2022-08-26T07:31:56.578Z,23.58
2022-08-26T07:34:26.213Z,23.70
2022-08-26T07:36:55.297Z,23.82
2022-08-26T07:39:23.647Z,23.95
2022-08-26T07:41:51.782Z,24.11
2022-08-26T07:44:20.173Z,24.30
2022-08-26T07:46:53.131Z,24.45
2022-08-26T07:49:21.883Z,24.57
2022-08-26T07:51:50.893Z,24.67
2022-08-26T07:54:18.809Z,24.78
2022-08-26T07:56:46.446Z,24.90
2022-08-26T07:59:15.165Z,24.99
2022-08-26T08:01:45.147Z,25.08
2022-08-26T08:04:13.417Z,25.17
2022-08-26T08:06:43.966Z,25.25
2022-08-26T08:09:14.798Z,25.39
2022-08-26T08:11:44.636Z,25.49
2022-08-26T08:14:12.638Z,25.56
2022-08-26T08:16:45.814Z,25.63
2022-08-26T08:19:14.737Z,25.72
2022-08-26T08:21:42.352Z,25.80
2022-08-26T08:24:11.179Z,26.01
2022-08-26T08:26:40.172Z,26.23
2022-08-26T08:29:09.417Z,26.42
2022-08-26T08:31:57.090Z,26.53
2022-08-26T08:34:26.412Z,26.63
2022-08-26T08:36:54.413Z,26.75
2022-08-26T08:39:22.445Z,26.93
2022-08-26T08:42:05.962Z,27.21
2022-08-26T08:44:37.602Z,27.54
2022-08-26T08:47:16.053Z,27.87
2022-08-26T08:49:47.998Z,28.20
2022-08-26T08:52:29.064Z,28.42
2022-08-26T08:54:57.426Z,28.43
2022-08-26T08:57:32.653Z,28.33
2022-08-26T09:00:08.236Z,28.24
2022-08-26T09:02:43.926Z,28.16
2022-08-26T09:05:21.462Z,28.02
2022-08-26T09:07:54.474Z,27.89
2022-08-26T09:10:33.512Z,27.78
2022-08-26T09:13:06.997Z,27.68
2022-08-26T09:15:43.239Z,27.59
2022-08-26T09:18:24.491Z,27.50
2022-08-26T09:20:57.763Z,27.40
2022-08-26T09:23:26.180Z,27.29
2022-08-26T09:25:56.015Z,27.22
2022-08-26T09:28:27.725Z,27.13
2022-08-26T09:31:11.535Z,27.08
2022-08-26T09:33:40.163Z,27.02
2022-08-26T09:36:26.209Z,26.79
2022-08-26T09:38:55.061Z,26.42
2022-08-26T09:41:31.656Z,26.10
2022-08-26T09:44:20.853Z,25.81
2022-08-26T09:46:55.781Z,25.52
2022-08-26T09:49:35.583Z,25.16
2022-08-26T09:52:07.636Z,24.65
2022-08-26T09:54:36.406Z,24.16
2022-08-26T09:57:22.367Z,23.68
2022-08-26T09:59:51.424Z,23.38
2022-08-26T10:02:37.912Z,23.23
2022-08-26T10:05:10.803Z,23.13
2022-08-26T10:07:43.322Z,22.99
2022-08-26T10:10:15.347Z,22.82
2022-08-26T10:12:50.662Z,22.69
2022-08-26T10:15:20.550Z,22.64
2022-08-26T10:17:56.781Z,22.59
2022-08-26T10:20:27.809Z,22.52
2022-08-26T10:23:00.584Z,22.47
2022-08-26T10:25:34.418Z,22.45
2022-08-26T10:28:11.629Z,22.46
2022-08-26T10:30:46.325Z,22.45
2022-08-26T10:33:18.064Z,22.45
2022-08-26T10:35:52.128Z,22.48
2022-08-26T10:38:28.804Z,22.55
2022-08-26T10:41:03.493Z,22.65
2022-08-26T10:43:42.418Z,22.71
2022-08-26T10:46:17.079Z,22.80
2022-08-26T10:48:52.115Z,22.82
2022-08-26T10:51:24.325Z,22.86
2022-08-26T10:53:57.843Z,22.91
2022-08-26T10:56:41.935Z,23.02
2022-08-26T10:59:21.164Z,23.15
2022-08-26T11:01:56.200Z,23.19
2022-08-26T11:04:45.601Z,23.23
2022-08-26T11:20:55.239Z,24.06
2022-08-26T12:21:13.313Z,25.51
2022-08-26T12:23:46.022Z,25.53
2022-08-26T12:26:22.533Z,25.53
2022-08-26T12:28:54.353Z,25.51
2022-08-26T12:31:25.866Z,25.47
2022-08-26T12:33:54.621Z,25.46
2022-08-26T12:36:27.479Z,25.49
2022-08-26T12:38:58.608Z,25.52
2022-08-26T12:41:43.788Z,25.51
2022-08-26T12:44:32.862Z,25.46
2022-08-26T12:47:09.850Z,25.44
2022-08-26T12:49:38.141Z,25.44
2022-08-26T12:52:07.166Z,25.43
2022-08-26T12:54:56.897Z,25.44
2022-08-26T12:57:29.042Z,25.46
2022-08-26T13:00:26.269Z,25.49
2022-08-26T13:03:00.152Z,25.53
2022-08-26T13:05:33.143Z,25.55
2022-08-26T13:08:14.737Z,25.58
2022-08-26T13:10:46.268Z,25.55
2022-08-26T13:13:14.289Z,25.49
2022-08-26T13:15:41.853Z,25.43
2022-08-26T13:18:09.502Z,25.39
2022-08-26T13:20:44.146Z,25.32
2022-08-26T13:23:12.167Z,25.28
2022-08-26T13:25:40.172Z,25.28
2022-08-26T13:28:09.197Z,25.25
2022-08-26T13:30:36.832Z,25.21
2022-08-26T13:33:04.741Z,25.18
2022-08-26T13:35:32.275Z,25.15
2022-08-26T13:37:59.998Z,25.06
2022-08-26T13:40:31.260Z,24.98
2022-08-26T13:43:01.540Z,24.93
2022-08-26T13:45:30.492Z,24.90
2022-08-26T13:47:58.694Z,24.88
2022-08-26T13:50:26.324Z,24.84
2022-08-26T13:52:54.425Z,24.79
2022-08-26T13:55:22.280Z,24.77
2022-08-26T13:57:49.941Z,24.74
2022-08-26T14:00:18.509Z,24.74
2022-08-26T14:02:48.530Z,24.71
2022-08-26T14:05:17.209Z,24.67
2022-08-26T14:07:44.852Z,24.65
2022-08-26T14:10:12.729Z,24.65
2022-08-26T14:12:40.976Z,24.66
2022-08-26T14:15:09.750Z,24.67
2022-08-26T14:17:40.386Z,24.67
2022-08-26T14:20:15.185Z,24.67
2022-08-26T14:23:03.572Z,24.69
2022-08-26T14:25:33.500Z,24.70
2022-08-26T14:28:03.490Z,24.67
2022-08-26T14:30:31.949Z,24.66
2022-08-26T14:33:00.319Z,24.66
2022-08-26T14:35:32.134Z,24.66
2022-08-26T14:37:59.721Z,24.65
2022-08-26T14:40:30.642Z,24.66
2022-08-26T14:43:09.046Z,24.67
2022-08-26T14:48:09.618Z,24.73
2022-08-26T14:50:40.972Z,24.77
2022-08-26T14:53:25.990Z,24.80
2022-08-26T14:55:53.736Z,24.82
2022-08-26T14:58:21.280Z,24.84
2022-08-26T15:00:48.810Z,24.86
2022-08-26T15:05:50.062Z,24.91
2022-08-26T15:08:18.198Z,24.94
2022-08-26T15:10:45.721Z,24.97
2022-08-26T15:13:13.258Z,25.01
2022-08-26T15:15:40.833Z,25.06
2022-08-26T15:18:08.538Z,25.10
2022-08-26T15:20:36.382Z,25.14
2022-08-26T15:23:06.906Z,25.17
2022-08-26T15:25:34.731Z,25.20
2022-08-26T15:28:02.272Z,25.20
2022-08-26T15:30:29.807Z,25.24
2022-08-26T15:32:57.365Z,25.27
2022-08-26T15:35:24.842Z,25.30
2022-08-26T15:40:22.276Z,25.36
2022-08-26T15:42:57.589Z,25.37
2022-08-26T15:45:29.117Z,25.38
2022-08-26T15:48:01.229Z,25.41
2022-08-26T15:50:29.893Z,25.41
2022-08-26T15:52:59.537Z,25.40
2022-08-26T15:55:28.441Z,25.40
2022-08-26T15:57:56.098Z,25.41
2022-08-26T16:00:24.378Z,25.42
2022-08-26T16:02:51.890Z,25.40
2022-08-26T16:05:19.726Z,25.41
2022-08-26T16:07:47.232Z,25.42
2022-08-26T16:10:14.752Z,25.42
2022-08-26T16:12:43.715Z,25.41
2022-08-26T16:15:12.223Z,25.41
2022-08-26T16:17:40.737Z,25.42
2022-08-26T16:20:10.179Z,25.43
2022-08-26T16:22:37.737Z,25.43
2022-08-26T16:25:07.334Z,25.42
2022-08-26T16:27:37.953Z,25.42
2022-08-26T16:35:55.824Z,25.35
2022-08-26T16:38:23.680Z,25.31
2022-08-26T16:40:51.840Z,25.28
2022-08-26T16:43:19.505Z,25.28
2022-08-26T16:45:50.054Z,25.28
2022-08-26T16:48:18.359Z,25.27
2022-08-26T16:53:39.936Z,25.29
2022-08-26T17:12:02.601Z,24.90
2022-08-26T17:38:55.529Z,24.16
2022-08-26T17:41:23.533Z,24.19
2022-08-26T17:43:51.349Z,24.17
2022-08-26T17:46:19.314Z,24.17
2022-08-26T17:48:48.448Z,24.12
2022-08-26T17:51:21.871Z,24.05
2022-08-26T17:53:50.394Z,24.01
2022-08-26T17:56:23.910Z,23.99
2022-08-26T17:58:56.913Z,23.98
2022-08-26T18:01:27.102Z,23.95
2022-08-26T18:04:00.297Z,23.91
2022-08-26T18:06:30.706Z,23.84
2022-08-26T18:08:59.295Z,23.77
2022-08-26T18:11:29.657Z,23.69
2022-08-26T18:13:57.376Z,23.63
2022-08-26T18:16:25.440Z,23.64
2022-08-26T18:18:54.001Z,23.65
2022-08-26T18:21:24.425Z,23.62
2022-08-26T18:23:53.193Z,23.61
2022-08-26T18:26:23.227Z,23.56
2022-08-26T18:29:03.396Z,23.52
2022-08-26T18:31:31.774Z,23.50
2022-08-26T18:34:00.613Z,23.49
2022-08-26T18:36:32.147Z,23.49
2022-08-26T18:39:00.591Z,23.46
2022-08-26T18:41:34.966Z,23.35
2022-08-26T18:44:12.957Z,23.28
2022-08-26T18:46:43.715Z,23.18
2022-08-26T18:49:16.280Z,23.12
2022-08-26T18:51:48.388Z,23.04
2022-08-26T18:56:58.357Z,22.93
2022-08-26T19:00:35.690Z,22.88
2022-08-26T19:03:38.248Z,22.82
2022-08-26T19:06:29.836Z,22.78
2022-08-26T19:16:09.490Z,22.46
2022-08-26T19:19:12.429Z,22.34
2022-08-26T19:21:53.632Z,22.34
2022-08-26T19:24:31.762Z,22.32
2022-08-26T19:27:06.549Z,22.29
2022-08-26T19:29:44.751Z,22.14
2022-08-26T19:32:17.695Z,22.05
2022-08-26T19:35:02.418Z,22.02
2022-08-26T19:37:33.163Z,21.97
2022-08-26T19:40:01.844Z,21.95
2022-08-26T19:42:31.167Z,21.99
2022-08-26T19:45:24.720Z,21.99
2022-08-26T19:47:53.516Z,21.93
2022-08-26T19:50:22.820Z,21.91
2022-08-26T19:52:50.665Z,21.87
2022-08-26T19:55:20.832Z,21.77
2022-08-26T19:57:57.723Z,21.66
2022-08-26T20:00:28.629Z,21.53
2022-08-26T20:02:56.595Z,21.52
2022-08-26T20:05:27.005Z,21.51
2022-08-26T20:07:54.949Z,21.46
2022-08-26T20:10:24.515Z,21.37
2022-08-26T20:12:52.726Z,21.34
2022-08-26T20:15:22.372Z,21.35
2022-08-26T20:17:50.329Z,21.31
2022-08-26T20:20:47.377Z,21.26
2022-08-26T20:23:16.800Z,21.17
2022-08-26T20:25:46.600Z,21.11
2022-08-26T20:28:14.214Z,21.05
2022-08-26T20:39:20.967Z,20.87
2022-08-26T21:01:07.775Z,20.95
2022-08-26T21:09:06.587Z,20.73
2022-08-26T21:11:35.148Z,20.74
2022-08-26T21:14:15.683Z,20.83
2022-08-26T21:16:47.179Z,20.93
2022-08-26T21:19:18.003Z,20.96
2022-08-26T21:21:46.256Z,20.93
2022-08-26T21:24:14.115Z,20.90
2022-08-26T21:26:41.943Z,20.94
2022-08-26T21:29:10.430Z,20.91
2022-08-26T21:31:43.563Z,20.87
2022-08-26T21:34:14.769Z,20.88
2022-08-26T21:36:42.420Z,20.86
2022-08-26T21:39:12.046Z,20.88
2022-08-26T21:41:40.467Z,20.89
2022-08-26T21:44:08.588Z,20.80
2022-08-26T21:46:37.285Z,20.77
2022-08-26T21:49:08.112Z,20.76
2022-08-26T21:51:39.566Z,20.78
2022-08-26T21:54:11.119Z,20.82
2022-08-26T21:56:44.260Z,20.74
2022-08-26T21:59:12.624Z,20.72
2022-08-26T22:01:40.295Z,20.65
2022-08-26T22:04:10.360Z,20.58
2022-08-26T22:06:43.812Z,20.55
2022-08-26T22:09:12.353Z,20.63
2022-08-26T22:11:40.419Z,20.74
2022-08-26T22:14:08.032Z,20.82
2022-08-26T22:16:35.804Z,20.86
2022-08-26T22:19:03.489Z,20.87
2022-08-26T22:21:31.120Z,20.87
2022-08-26T22:24:00.430Z,20.75
2022-08-26T22:26:31.386Z,20.70
2022-08-26T22:29:00.937Z,20.64
2022-08-26T22:31:38.471Z,20.63
2022-08-26T22:34:08.605Z,20.63
2022-08-26T22:36:37.409Z,20.67
2022-08-26T22:39:13.847Z,20.72
2022-08-26T22:41:42.053Z,20.66
2022-08-26T22:44:11.614Z,20.65
2022-08-26T22:46:40.414Z,20.68
2022-08-26T22:49:09.605Z,20.64
2022-08-26T22:51:37.262Z,20.67
2022-08-26T22:54:05.444Z,20.69
2022-08-26T22:56:34.855Z,20.71
2022-08-26T22:59:02.590Z,20.67
2022-08-26T23:01:30.591Z,20.61
2022-08-26T23:03:58.246Z,20.56
2022-08-26T23:17:17.346Z,20.37
2022-08-26T23:42:33.099Z,20.05
2022-08-26T23:45:19.437Z,20.03
